Time;durP1;ratioP1;P1;durP2;ratioP2;P2;SDS_P1;SDS_P2;PMS_P1;PMS_P2;Temp;Humidity;BMP_temperature;BMP_pressure;BME280_temperature;BME280_humidity;BME280_pressure;Samples;Min_cycle;Max_cycle;Signal;HPM_P1;HPM_P2
2023/03/24 00:01:54;;;;;;;5.03;2.35;;;;;;;20.00;51.17;96173.50;10392604;28;20100;-77
2023/03/24 00:07:15;;;;;;;5.30;2.45;;;;;;;19.99;51.15;96172.69;10395170;28;20042;-77
2023/03/24 00:12:37;;;;;;;5.18;2.40;;;;;;;19.98;51.00;96170.34;10366772;28;20069;-76
2023/03/24 00:17:57;;;;;;;4.55;2.20;;;;;;;19.97;51.16;96163.38;10380082;28;20046;-77
2023/03/24 00:23:17;;;;;;;5.47;2.58;;;;;;;19.97;50.99;96161.44;10379843;28;20042;-77
2023/03/24 00:28:37;;;;;;;4.72;2.30;;;;;;;19.97;51.09;96163.38;10380693;28;20109;-77
2023/03/24 00:33:57;;;;;;;4.72;2.22;;;;;;;19.95;51.13;96145.59;10379761;28;20052;-77
2023/03/24 00:39:18;;;;;;;4.72;2.45;;;;;;;19.94;51.04;96144.00;10365801;28;20050;-75
2023/03/24 00:44:38;;;;;;;4.53;2.50;;;;;;;19.93;50.95;96134.31;10365302;28;20049;-76
2023/03/24 00:50:00;;;;;;;4.05;2.10;;;;;;;19.94;51.01;96130.47;10393805;28;20042;-76
2023/03/24 00:55:21;;;;;;;4.68;2.28;;;;;;;19.92;50.96;96127.34;10378764;28;20050;-77
2023/03/24 01:00:41;;;;;;;4.85;2.25;;;;;;;19.92;50.78;96126.56;10364805;28;20046;-76
2023/03/24 01:06:01;;;;;;;3.78;2.10;;;;;;;19.90;50.86;96116.06;10378011;28;20045;-76
2023/03/24 01:11:23;;;;;;;4.30;2.25;;;;;;;19.90;50.97;96107.97;10363990;28;20092;-76
2023/03/24 01:16:42;;;;;;;6.30;2.38;;;;;;;19.89;50.86;96111.78;10350648;28;20099;-76
2023/03/24 01:22:02;;;;;;;5.30;2.25;;;;;;;19.88;50.91;96112.94;10364015;28;20050;-76
2023/03/24 01:27:22;;;;;;;3.58;2.10;;;;;;;19.87;50.85;96107.88;10343970;28;20062;-76
2023/03/24 01:32:42;;;;;;;4.47;2.17;;;;;;;19.87;50.78;96094.34;10363460;28;20426;-76
2023/03/24 01:38:07;;;;;;;4.93;2.25;;;;;;;19.86;50.81;96096.28;10376944;28;20045;-76
2023/03/24 01:43:32;;;;;;;4.13;2.20;;;;;;;19.86;50.76;96088.16;10377170;28;20049;-74
2023/03/24 01:48:59;;;;;;;3.58;2.03;;;;;;;19.84;50.88;96079.59;10363091;28;20053;-74
2023/03/24 01:54:23;;;;;;;3.50;2.03;;;;;;;19.86;50.85;96082.75;10362895;28;20050;-74
2023/03/24 01:59:51;;;;;;;4.32;2.13;;;;;;;19.84;50.87;96068.81;10349366;28;20038;-74
2023/03/24 02:05:35;;;;;;;3.70;1.75;;;;;;;19.83;50.86;96069.13;10379297;28;20446;-77
2023/03/24 02:10:56;;;;;;;2.55;1.77;;;;;;;19.83;50.82;96067.22;10361884;28;20046;-77
2023/03/24 02:16:23;;;;;;;3.20;2.03;;;;;;;19.82;50.83;96065.66;10362439;28;20045;-77
2023/03/24 02:22:03;;;;;;;3.38;1.95;;;;;;;19.81;50.96;96057.88;10360838;28;20045;-77
2023/03/24 02:27:22;;;;;;;3.50;1.90;;;;;;;19.81;50.73;96050.56;10368893;28;20058;-76
2023/03/24 02:33:15;;;;;;;4.10;2.20;;;;;;;19.79;50.85;96047.41;10361032;28;20437;-76
2023/03/24 02:38:45;;;;;;;3.42;1.92;;;;;;;19.78;50.72;96051.25;10341036;28;20065;-76
2023/03/24 02:44:20;;;;;;;4.00;1.67;;;;;;;19.78;50.78;96032.34;10374058;28;20497;-77
2023/03/24 02:49:42;;;;;;;2.53;1.75;;;;;;;19.76;50.69;96034.59;10360506;28;20046;-76
2023/03/24 02:55:20;;;;;;;3.53;2.20;;;;;;;19.76;50.81;96042.72;10373870;28;20490;-77
2023/03/24 03:00:46;;;;;;;3.00;1.80;;;;;;;19.76;50.64;96045.41;10360156;28;20049;-76
2023/03/24 03:06:12;;;;;;;3.90;1.90;;;;;;;19.75;50.54;96046.53;10373433;28;20042;-77
2023/03/24 03:11:31;;;;;;;2.83;1.90;;;;;;;19.74;50.62;96044.97;10359886;28;20042;-76
2023/03/24 03:16:59;;;;;;;4.13;1.58;;;;;;;19.73;50.75;96032.56;10359748;28;20129;-77
2023/03/24 03:22:25;;;;;;;2.83;1.90;;;;;;;19.73;50.74;96040.69;10359558;28;20045;-77
2023/03/24 03:27:45;;;;;;;1.95;1.35;;;;;;;19.72;50.78;96028.31;10352023;28;20568;-77
2023/03/24 03:33:17;;;;;;;2.58;1.77;;;;;;;19.71;50.75;96030.22;10372825;28;20046;-77
2023/03/24 03:38:46;;;;;;;2.65;1.50;;;;;;;19.70;50.76;96022.44;10373014;28;20038;-77
2023/03/24 03:44:06;;;;;;;2.38;1.35;;;;;;;19.70;50.65;96008.94;10372671;28;20042;-77
2023/03/24 03:49:26;;;;;;;2.30;1.40;;;;;;;19.69;50.59;96018.94;10345182;28;20042;-77
2023/03/24 03:54:46;;;;;;;2.08;1.30;;;;;;;19.68;50.71;96021.97;10358715;28;20042;-77
2023/03/24 04:00:13;;;;;;;2.55;1.40;;;;;;;19.67;50.63;96034.69;10358474;28;20042;-77
2023/03/24 04:05:53;;;;;;;1.73;1.40;;;;;;;19.66;50.79;96021.53;10360418;28;20045;-76
2023/03/24 04:11:17;;;;;;;2.92;1.55;;;;;;;19.66;50.67;96021.53;10386901;28;20653;-77
2023/03/24 04:17:11;;;;;;;2.28;1.40;;;;;;;19.65;50.70;96018.03;10353608;28;20437;-77
2023/03/24 04:23:01;;;;;;;2.13;1.30;;;;;;;19.64;50.75;96010.28;10359093;28;20092;-77
2023/03/24 04:28:25;;;;;;;1.97;1.40;;;;;;;19.65;50.67;96011.84;10363100;28;20054;-76
2023/03/24 04:33:49;;;;;;;1.85;1.50;;;;;;;19.63;50.47;96016.81;10371673;28;20117;-77
2023/03/24 04:39:11;;;;;;;2.33;1.70;;;;;;;19.62;50.58;96017.94;10371607;28;20453;-77
2023/03/24 04:44:40;;;;;;;2.22;1.52;;;;;;;19.62;50.51;96017.94;10345730;28;20046;-76
2023/03/24 04:50:30;;;;;;;1.83;1.20;;;;;;;19.61;50.67;96011.75;10381823;28;20041;-76
2023/03/24 04:56:18;;;;;;;2.72;1.30;;;;;;;19.60;50.69;96004.78;10365227;28;20041;-77
2023/03/24 05:01:52;;;;;;;2.70;1.13;;;;;;;19.59;50.65;96014.00;10366681;28;20046;-76
2023/03/24 05:07:28;;;;;;;2.25;1.33;;;;;;;19.60;50.45;96001.28;10369131;28;20499;-75
2023/03/24 05:12:52;;;;;;;1.88;1.42;;;;;;;19.58;50.71;95990.03;10351730;28;20061;-76
2023/03/24 05:18:30;;;;;;;2.08;1.50;;;;;;;19.58;50.97;95971.91;10380616;28;20042;-77
2023/03/24 05:23:50;;;;;;;2.65;1.35;;;;;;;19.59;51.09;95970.00;10364595;28;20117;-78
2023/03/24 05:29:10;;;;;;;1.90;1.27;;;;;;;19.58;51.14;95963.03;10337220;28;20392;-78
2023/03/24 05:34:30;;;;;;;2.05;1.30;;;;;;;19.57;51.36;95959.53;10377565;28;20054;-77
2023/03/24 05:39:59;;;;;;;2.10;1.35;;;;;;;19.58;51.38;95966.50;10377391;28;20042;-79
2023/03/24 05:45:37;;;;;;;3.20;1.38;;;;;;;19.59;51.44;95949.16;10365698;28;20505;-74
2023/03/24 05:50:57;;;;;;;2.45;1.15;;;;;;;19.61;51.49;95951.53;10364241;28;20046;-78
2023/03/24 05:56:17;;;;;;;1.65;1.40;;;;;;;19.61;51.48;95946.13;10348420;28;20439;-78
2023/03/24 06:01:57;;;;;;;3.10;1.50;;;;;;;19.63;51.82;95950.06;10365552;28;20513;-78
2023/03/24 06:07:46;;;;;;;2.90;1.52;;;;;;;19.63;51.04;95930.38;10347554;28;20092;-78
2023/03/24 06:13:07;;;;;;;3.17;1.85;;;;;;;19.63;50.96;95936.53;10362583;28;20046;-78
2023/03/24 06:18:29;;;;;;;6.28;2.35;;;;;;;19.66;51.24;95937.75;10362554;28;20391;-78
2023/03/24 06:23:52;;;;;;;7.28;2.40;;;;;;;19.68;51.02;95941.72;10362276;28;20160;-78
2023/03/24 06:29:18;;;;;;;8.02;2.58;;;;;;;19.69;51.01;95929.75;10365239;28;20050;-78
2023/03/24 06:34:39;;;;;;;8.02;3.15;;;;;;;19.71;50.93;95926.72;10361890;28;20041;-78
2023/03/24 06:40:16;;;;;;;7.18;2.80;;;;;;;19.73;50.79;95930.66;10363680;28;20053;-78
2023/03/24 06:45:43;;;;;;;;;;;;;;;19.74;50.98;95917.94;10350035;28;20045;-78
2023/03/24 06:51:08;;;;;;;7.47;2.90;;;;;;;19.77;50.71;95921.88;10361378;28;19925;-78
2023/03/24 06:56:29;;;;;;;7.15;2.88;;;;;;;19.77;50.60;95928.06;10374259;28;20418;-78
2023/03/24 07:01:51;;;;;;;7.28;2.83;;;;;;;19.79;50.56;95925.78;10360950;28;20049;-78
2023/03/24 07:07:16;;;;;;;6.60;2.65;;;;;;;19.83;50.47;95934.78;10361684;28;20069;-78
2023/03/24 07:12:38;;;;;;;5.65;2.70;;;;;;;19.84;50.26;95936.34;10360498;28;20049;-79
2023/03/24 07:17:58;;;;;;;5.85;2.45;;;;;;;19.86;50.21;95931.38;10388372;28;20049;-77
2023/03/24 07:23:47;;;;;;;5.32;2.40;;;;;;;19.88;50.26;95929.13;10358447;28;20062;-77
2023/03/24 07:29:12;;;;;;;5.20;2.42;;;;;;;19.90;50.22;95931.50;10349210;28;20058;-78
2023/03/24 07:34:56;;;;;;;6.43;2.10;;;;;;;19.83;46.28;95928.59;10372663;28;20045;-77
2023/03/24 07:40:16;;;;;;;2.20;1.90;;;;;;;19.66;45.21;95935.88;10359438;28;20398;-77
2023/03/24 07:45:37;;;;;;;4.22;1.90;;;;;;;19.54;44.63;95930.50;10359233;28;20041;-77
2023/03/24 07:50:58;;;;;;;3.75;1.77;;;;;;;19.47;44.36;95931.09;10358778;28;20112;-76
2023/03/24 07:56:36;;;;;;;3.50;2.15;;;;;;;19.42;44.11;95917.84;10387007;28;20052;-76
2023/03/24 08:01:57;;;;;;;3.35;2.28;;;;;;;19.40;44.31;95927.41;10345299;28;20053;-76
2023/03/24 08:07:54;;;;;;;3.45;2.75;;;;;;;19.38;44.01;95926.97;10357555;28;20119;-76
2023/03/24 08:13:14;;;;;;;3.08;2.70;;;;;;;19.36;44.10;95921.91;10358874;28;20046;-76
2023/03/24 08:18:34;;;;;;;4.93;3.20;;;;;;;19.26;43.48;95925.88;10358265;28;20046;-76
2023/03/24 08:23:53;;;;;;;4.65;3.40;;;;;;;19.11;43.74;95937.41;10378616;28;20046;-76
2023/03/24 08:29:13;;;;;;;3.30;2.85;;;;;;;19.00;43.81;95934.41;10368715;28;20108;-76
2023/03/24 08:34:32;;;;;;;5.63;2.90;;;;;;;18.96;44.24;95920.81;10379417;28;20062;-76
2023/03/24 08:39:51;;;;;;;3.15;2.20;;;;;;;18.96;44.33;95925.44;10379323;28;20050;-76
2023/03/24 08:45:11;;;;;;;3.40;2.53;;;;;;;19.04;44.77;95918.31;10378760;28;20050;-77
2023/03/24 08:50:36;;;;;;;2.75;2.50;;;;;;;19.23;45.34;95914.97;10379000;28;20042;-76
2023/03/24 08:55:56;;;;;;;3.50;2.38;;;;;;;19.35;45.59;95912.25;10351452;28;20053;-77
2023/03/24 09:01:20;;;;;;;31.83;24.40;;;;;;;19.45;46.15;95909.06;10364768;28;20058;-77
2023/03/24 09:06:40;;;;;;;25.67;18.10;;;;;;;19.51;46.05;95896.09;10364536;28;20388;-77
2023/03/24 09:11:59;;;;;;;22.08;16.13;;;;;;;19.56;46.26;95891.22;10364447;28;20088;-77
2023/03/24 09:17:19;;;;;;;17.83;13.70;;;;;;;19.61;46.35;95892.09;10378246;28;20046;-77
2023/03/24 09:22:40;;;;;;;19.52;13.02;;;;;;;19.63;46.40;95866.28;10350345;28;20052;-76
2023/03/24 09:28:00;;;;;;;19.20;11.95;;;;;;;19.66;46.71;95854.00;10369841;28;20076;-76
2023/03/24 09:33:20;;;;;;;14.90;10.52;;;;;;;19.70;46.71;95844.88;10391624;28;20038;-76
2023/03/24 09:38:39;;;;;;;14.00;10.50;;;;;;;19.73;46.80;95851.50;10363528;28;20053;-76
2023/03/24 09:44:02;;;;;;;14.65;9.95;;;;;;;19.75;46.96;95855.44;10376646;28;20042;-77
2023/03/24 09:49:24;;;;;;;12.15;9.55;;;;;;;19.78;47.00;95853.97;10376695;28;20041;-76
2023/03/24 09:54:54;;;;;;;15.10;9.52;;;;;;;19.79;46.92;95844.72;10362812;28;20049;-76
2023/03/24 10:00:22;;;;;;;13.38;9.40;;;;;;;19.82;47.05;95843.25;10362619;28;20042;-76
2023/03/24 10:06:24;;;;;;;13.93;9.20;;;;;;;19.85;47.08;95831.72;10376913;28;20053;-76
2023/03/24 10:11:56;;;;;;;12.45;8.52;;;;;;;19.87;47.00;95830.25;10376074;28;20041;-76
2023/03/24 10:17:48;;;;;;;10.82;8.13;;;;;;;19.89;47.04;95827.97;10390404;28;20052;-75
2023/03/24 10:23:26;;;;;;;10.63;7.93;;;;;;;19.91;47.09;95857.34;10343622;28;20112;-77
2023/03/24 10:28:51;;;;;;;8.73;7.50;;;;;;;19.92;47.21;95861.66;10351653;28;20111;-77
2023/03/24 10:34:11;;;;;;;9.20;7.47;;;;;;;19.94;47.03;95873.66;10360916;28;20056;-78
2023/03/24 10:39:31;;;;;;;10.23;6.78;;;;;;;19.95;46.97;95872.56;10361184;28;20042;-77
2023/03/24 10:44:51;;;;;;;7.82;6.22;;;;;;;19.98;46.99;95868.34;10346651;28;20049;-77
2023/03/24 10:50:11;;;;;;;7.65;5.63;;;;;;;19.99;46.94;95885.34;10374440;28;20042;-76
2023/03/24 10:55:37;;;;;;;7.22;5.55;;;;;;;20.01;46.83;95883.09;10347006;28;20050;-76
2023/03/24 11:00:58;;;;;;;8.18;5.32;;;;;;;20.01;46.93;95881.16;10374286;28;20037;-76
2023/03/24 11:06:21;;;;;;;6.60;4.60;;;;;;;20.03;46.66;95876.22;10388405;28;20104;-77
2023/03/24 11:11:40;;;;;;;5.13;4.05;;;;;;;20.04;46.56;95868.88;10374192;28;20042;-76
2023/03/24 11:17:12;;;;;;;4.00;3.50;;;;;;;20.05;46.35;95873.13;10359805;28;20049;-75
2023/03/24 11:22:31;;;;;;;4.28;3.13;;;;;;;20.06;46.21;95875.50;10373397;28;20118;-76
2023/03/24 11:27:54;;;;;;;4.43;3.40;;;;;;;20.08;46.40;95875.94;10380748;28;20461;-76
2023/03/24 11:33:25;;;;;;;4.68;3.20;;;;;;;20.09;46.41;95876.72;10373106;28;20053;-76
2023/03/24 11:38:57;;;;;;;3.53;2.95;;;;;;;20.12;46.22;95873.31;10359310;28;20049;-76
2023/03/24 11:44:22;;;;;;;3.75;3.03;;;;;;;20.13;46.28;95861.34;10359062;28;20042;-77
2023/03/24 11:50:10;;;;;;;2.88;2.58;;;;;;;20.14;46.21;95871.81;10387590;28;20045;-77
2023/03/24 11:55:35;;;;;;;4.45;2.80;;;;;;;20.15;46.24;95856.41;10390729;28;20072;-77
2023/03/24 12:00:58;;;;;;;3.97;2.50;;;;;;;20.17;46.11;95867.66;10395556;28;20387;-77
2023/03/24 12:06:30;;;;;;;3.05;2.47;;;;;;;20.17;46.16;95875.75;10366975;28;20046;-77
2023/03/24 12:12:11;;;;;;;3.90;2.40;;;;;;;20.18;46.10;95869.22;10380563;28;20072;-77
2023/03/24 12:17:42;;;;;;;3.83;2.50;;;;;;;20.18;46.16;95850.28;10380167;28;20042;-77
2023/03/24 12:23:24;;;;;;;4.18;2.45;;;;;;;20.19;46.16;95842.94;10366478;28;20038;-77
2023/03/24 12:28:53;;;;;;;2.80;2.22;;;;;;;20.19;46.31;95838.34;10369722;28;20073;-77
2023/03/24 12:34:35;;;;;;;3.40;2.20;;;;;;;20.20;46.30;95848.00;10379559;28;20057;-77
2023/03/24 12:40:09;;;;;;;3.33;2.17;;;;;;;20.19;46.49;95841.03;10352154;28;20453;-77
2023/03/24 12:45:54;;;;;;;2.63;2.20;;;;;;;20.21;46.64;95837.97;10366138;28;20137;-77
2023/03/24 12:51:29;;;;;;;2.83;2.00;;;;;;;20.21;46.54;95833.38;10379199;28;20045;-77
2023/03/24 12:56:57;;;;;;;4.13;2.17;;;;;;;20.21;46.63;95837.97;10378919;28;20046;-77
2023/03/24 13:02:26;;;;;;;2.80;2.40;;;;;;;20.20;46.52;95837.19;10364996;28;20053;-77
2023/03/24 13:07:52;;;;;;;;;;;;;;;20.20;46.66;95850.72;10364969;28;20042;-77
2023/03/24 13:13:42;;;;;;;1.90;1.70;;;;;;;20.21;46.76;95878.53;10352153;28;19922;-76
2023/03/24 13:19:02;;;;;;;2.30;2.10;;;;;;;20.20;46.75;95874.28;10378133;28;20042;-77
2023/03/24 13:24:22;;;;;;;2.25;2.00;;;;;;;20.21;46.81;95867.72;10377492;28;20049;-77
2023/03/24 13:30:13;;;;;;;2.28;2.08;;;;;;;20.21;46.94;95848.78;10325008;28;20054;-77
2023/03/24 13:36:14;;;;;;;2.88;2.10;;;;;;;20.19;46.89;95851.88;10350757;28;20050;-77
2023/03/24 13:41:38;;;;;;;2.67;1.70;;;;;;;20.19;46.91;95835.63;10323015;28;20426;-77
2023/03/24 13:47:18;;;;;;;3.08;1.90;;;;;;;20.19;47.00;95824.81;10350862;28;20047;-77
2023/03/24 13:52:43;;;;;;;2.10;1.90;;;;;;;20.19;47.08;95834.84;10336241;28;20442;-77
2023/03/24 13:58:09;;;;;;;2.83;2.00;;;;;;;20.19;47.03;95821.31;10350624;28;20054;-77
2023/03/24 14:03:38;;;;;;;2.00;1.83;;;;;;;20.20;46.85;95815.56;10322420;28;20414;-77
2023/03/24 14:09:04;;;;;;;2.10;1.85;;;;;;;20.18;47.14;95828.66;10335470;28;20050;-77
2023/03/24 14:14:25;;;;;;;1.95;1.77;;;;;;;20.19;47.10;95826.72;10349845;28;20050;-77
2023/03/24 14:19:57;;;;;;;2.72;1.73;;;;;;;20.18;47.13;95812.41;10348041;28;20049;-77
2023/03/24 14:25:16;;;;;;;1.90;1.70;;;;;;;20.17;47.22;95810.88;10349632;28;20388;-76
2023/03/24 14:30:39;;;;;;;1.75;1.60;;;;;;;20.17;47.17;95804.66;10375227;28;20065;-77
2023/03/24 14:36:05;;;;;;;1.92;1.65;;;;;;;20.18;47.28;95806.22;10361745;28;20046;-77
2023/03/24 14:41:35;;;;;;;2.05;1.70;;;;;;;20.15;47.23;95808.50;10375125;28;20069;-77
2023/03/24 14:46:57;;;;;;;2.85;1.58;;;;;;;20.15;47.28;95800.41;10375304;28;20042;-76
2023/03/24 14:52:26;;;;;;;2.08;1.60;;;;;;;20.16;47.39;95795.75;10374441;28;20049;-77
2023/03/24 14:57:50;;;;;;;1.65;1.55;;;;;;;20.14;47.33;95785.28;10360561;28;20457;-77
2023/03/24 15:03:18;;;;;;;2.65;1.60;;;;;;;20.15;47.58;95791.50;10388528;28;20048;-78
2023/03/24 15:08:37;;;;;;;3.03;1.65;;;;;;;20.13;47.60;95801.88;10346205;28;20042;-76
2023/03/24 15:13:58;;;;;;;2.58;1.80;;;;;;;20.13;47.78;95807.28;10373990;28;20414;-77
2023/03/24 15:19:24;;;;;;;68.65;41.72;;;;;;;20.12;48.15;95803.00;10346831;28;20048;-78
2023/03/24 15:24:48;;;;;;;36.13;24.95;;;;;;;20.12;48.34;95792.97;10373403;28;20482;-77
2023/03/24 15:30:13;;;;;;;28.75;20.05;;;;;;;20.14;48.12;95771.00;10374278;28;20061;-77
2023/03/24 15:35:33;;;;;;;27.65;19.02;;;;;;;20.12;48.45;95773.28;10345834;28;20046;-77
2023/03/24 15:40:56;;;;;;;22.45;16.08;;;;;;;20.12;48.37;95768.63;10387337;28;20045;-77
2023/03/24 15:46:25;;;;;;;20.02;15.15;;;;;;;20.11;48.54;95758.16;10358892;28;20038;-77
2023/03/24 15:51:49;;;;;;;20.25;14.50;;;;;;;20.12;48.46;95759.75;10358726;28;20046;-76
2023/03/24 15:57:20;;;;;;;19.23;13.85;;;;;;;20.11;48.52;95755.47;10358927;28;20104;-77
2023/03/24 16:02:50;;;;;;;19.45;13.18;;;;;;;20.11;48.47;95758.97;10387670;28;20046;-76
2023/03/24 16:08:34;;;;;;;16.33;12.50;;;;;;;20.09;48.57;95755.03;10358755;28;20042;-77
2023/03/24 16:13:55;;;;;;;20.50;12.27;;;;;;;20.09;48.54;95747.72;10372516;28;20064;-77
2023/03/24 16:19:14;;;;;;;15.73;11.88;;;;;;;20.09;48.51;95741.53;10371961;28;20033;-78
2023/03/24 16:24:34;;;;;;;16.48;11.77;;;;;;;20.08;48.52;95739.97;10357993;28;20050;-77
2023/03/24 16:29:54;;;;;;;16.35;11.10;;;;;;;20.09;48.33;95749.63;10358772;28;20050;-78
2023/03/24 16:35:14;;;;;;;16.20;11.02;;;;;;;20.07;48.37;95747.31;10371686;28;20509;-77
2023/03/24 16:40:44;;;;;;;15.40;10.48;;;;;;;20.07;48.43;95751.91;10371602;28;20041;-76
2023/03/24 16:46:04;;;;;;;13.07;9.77;;;;;;;20.06;48.54;95756.53;10379234;28;20038;-76
2023/03/24 16:51:25;;;;;;;16.00;9.95;;;;;;;20.05;48.75;95754.97;10365214;28;20053;-76
2023/03/24 16:56:45;;;;;;;15.82;9.50;;;;;;;20.05;50.02;95757.69;10365183;28;20071;-75
2023/03/24 17:02:04;;;;;;;17.48;10.32;;;;;;;20.05;49.83;95778.50;10365801;28;20049;-77
2023/03/24 17:07:24;;;;;;;13.77;10.05;;;;;;;20.04;50.99;95790.47;10378059;28;20049;-76
2023/03/24 17:12:44;;;;;;;15.75;10.93;;;;;;;20.04;51.72;95807.47;10365380;28;20046;-76
2023/03/24 17:18:07;;;;;;;14.27;10.57;;;;;;;20.04;51.81;95807.47;10392810;28;20046;-77
2023/03/24 17:23:26;;;;;;;13.98;10.05;;;;;;;20.03;51.96;95835.66;10377953;28;20042;-76
2023/03/24 17:28:45;;;;;;;13.48;9.80;;;;;;;20.04;51.62;95836.44;10352942;28;20108;-77
2023/03/24 17:34:05;;;;;;;13.07;9.27;;;;;;;20.04;51.92;95849.97;10364128;28;20042;-76
2023/03/24 17:39:25;;;;;;;13.75;9.10;;;;;;;20.03;51.56;95856.47;10343260;28;20049;-76
2023/03/24 17:44:45;;;;;;;12.40;8.95;;;;;;;20.02;51.44;95866.53;10336632;28;20125;-77
2023/03/24 17:50:08;;;;;;;14.35;8.75;;;;;;;20.03;51.38;95875.41;10322855;28;20069;-76
2023/03/24 17:55:28;;;;;;;11.07;8.25;;;;;;;20.03;51.46;95870.00;10350578;28;20050;-76
2023/03/24 18:00:47;;;;;;;11.15;8.02;;;;;;;20.01;51.51;95866.84;10334975;28;20049;-76
2023/03/24 18:06:10;;;;;;;11.02;8.07;;;;;;;20.01;51.64;95864.16;10318978;28;20039;-75
2023/03/24 18:11:29;;;;;;;12.70;7.82;;;;;;;20.00;51.81;95863.38;10319230;28;20097;-76
2023/03/24 18:16:49;;;;;;;10.02;8.00;;;;;;;20.00;51.90;95868.00;10319877;28;20042;-76
2023/03/24 18:22:09;;;;;;;9.45;7.18;;;;;;;20.00;51.74;95881.53;10335576;28;20454;-77
2023/03/24 18:27:29;;;;;;;10.48;7.78;;;;;;;19.99;51.84;95886.13;10328830;28;20057;-78
2023/03/24 18:32:49;;;;;;;10.43;7.50;;;;;;;19.98;51.58;95900.78;10322063;28;20042;-77
2023/03/24 18:38:08;;;;;;;10.18;7.40;;;;;;;19.98;51.85;95881.88;10350169;28;20181;-77
2023/03/24 18:43:29;;;;;;;8.18;6.75;;;;;;;19.98;51.77;95889.19;10321394;28;20038;-77
2023/03/24 18:48:51;;;;;;;9.13;6.75;;;;;;;19.97;51.71;95890.31;10334598;28;20046;-77
2023/03/24 18:54:13;;;;;;;11.18;7.35;;;;;;;19.95;51.66;95883.38;10321798;28;20514;-77
2023/03/24 18:59:32;;;;;;;9.52;6.53;;;;;;;19.95;51.69;95893.38;10334132;28;20045;-76
2023/03/24 19:04:52;;;;;;;10.25;6.47;;;;;;;19.95;51.72;95898.78;10319559;28;20042;-78
2023/03/24 19:10:11;;;;;;;10.52;6.63;;;;;;;19.94;51.83;95889.88;10319611;28;20046;-78
2023/03/24 19:15:31;;;;;;;9.85;6.60;;;;;;;19.94;51.78;95903.41;10320387;28;20097;-78
2023/03/24 19:20:56;;;;;;;10.35;6.63;;;;;;;19.94;52.03;95906.09;10333072;28;20054;-77
2023/03/24 19:26:19;;;;;;;8.90;6.57;;;;;;;19.93;52.38;95922.66;10330564;28;20085;-78
2023/03/24 19:31:38;;;;;;;9.73;6.30;;;;;;;19.92;52.32;95911.06;10319575;28;20038;-78
2023/03/24 19:36:58;;;;;;;9.65;6.22;;;;;;;19.93;52.47;95892.94;10318858;28;20050;-75
2023/03/24 19:42:18;;;;;;;8.57;6.28;;;;;;;19.91;52.46;95901.38;10348436;28;20046;-75
2023/03/24 19:47:38;;;;;;;9.50;6.05;;;;;;;19.91;52.93;95917.59;10319437;28;20050;-75
2023/03/24 19:52:57;;;;;;;9.25;6.32;;;;;;;19.92;52.75;95919.19;10333269;28;20522;-74
2023/03/24 19:58:17;;;;;;;8.45;5.82;;;;;;;19.90;52.73;95934.97;10333280;28;20054;-76
2023/03/24 20:03:37;;;;;;;9.32;5.60;;;;;;;19.91;52.67;95923.00;10319539;28;20042;-76
2023/03/24 20:08:56;;;;;;;9.07;5.65;;;;;;;19.89;52.64;95927.19;10333682;28;20061;-76
2023/03/24 20:14:17;;;;;;;10.25;5.72;;;;;;;19.89;52.60;95930.69;10320040;28;20092;-77
2023/03/24 20:19:37;;;;;;;8.45;5.65;;;;;;;19.89;52.70;95941.50;10325751;28;20039;-77
2023/03/24 20:24:56;;;;;;;10.25;6.03;;;;;;;19.89;52.68;95929.91;10326949;28;20043;-77
2023/03/24 20:30:17;;;;;;;9.18;6.10;;;;;;;19.88;52.68;95945.34;10300416;28;20054;-77
2023/03/24 20:35:38;;;;;;;10.10;5.60;;;;;;;19.88;52.52;95942.63;10339784;28;20050;-76
2023/03/24 20:41:06;;;;;;;7.50;5.20;;;;;;;19.87;52.88;95946.47;10340053;28;20089;-77
2023/03/24 20:46:26;;;;;;;9.93;6.90;;;;;;;19.88;52.86;95947.28;10312760;28;20451;-78
2023/03/24 20:51:46;;;;;;;10.88;5.72;;;;;;;19.87;52.78;95949.16;10339401;28;20293;-78
2023/03/24 20:57:08;;;;;;;11.05;6.75;;;;;;;19.86;53.11;95946.81;10353990;28;20050;-77
2023/03/24 21:02:30;;;;;;;10.85;6.32;;;;;;;19.86;52.83;95953.00;10325992;28;20050;-78
2023/03/24 21:07:49;;;;;;;11.85;6.38;;;;;;;19.87;52.81;95953.78;10325696;28;20046;-76
2023/03/24 21:13:09;;;;;;;12.25;6.95;;;;;;;19.86;53.00;95958.41;10338690;28;20046;-77
2023/03/24 21:18:31;;;;;;;14.35;6.90;;;;;;;19.85;52.95;95962.25;10325075;28;20046;-76
2023/03/24 21:23:51;;;;;;;14.13;7.03;;;;;;;19.85;53.03;95974.97;10338706;28;20050;-77
2023/03/24 21:29:11;;;;;;;13.23;7.20;;;;;;;19.86;52.97;95980.03;10312821;28;20462;-76
2023/03/24 21:34:31;;;;;;;14.75;7.05;;;;;;;19.84;52.96;95979.59;10338988;28;20552;-79
2023/03/24 21:39:51;;;;;;;12.13;6.65;;;;;;;19.84;52.97;95971.50;10351571;28;20053;-76
2023/03/24 21:45:14;;;;;;;12.85;6.75;;;;;;;19.83;53.13;95986.13;10337516;28;20050;-75
2023/03/24 21:50:34;;;;;;;12.63;6.70;;;;;;;19.83;53.20;95978.03;10336702;28;20043;-76
2023/03/24 21:56:03;;;;;;;14.23;7.13;;;;;;;19.82;53.33;95971.06;10323433;28;20057;-76
2023/03/24 22:01:23;;;;;;;14.25;6.78;;;;;;;19.83;53.44;95979.94;10337229;28;20054;-76
2023/03/24 22:06:43;;;;;;;10.13;6.63;;;;;;;19.83;53.42;95974.53;10337599;28;20043;-76
2023/03/24 22:12:03;;;;;;;9.88;6.28;;;;;;;19.82;53.59;95968.34;10335760;28;20440;-75
2023/03/24 22:17:22;;;;;;;12.75;6.60;;;;;;;19.81;53.65;95972.16;10322391;28;20483;-75
2023/03/24 22:22:42;;;;;;;11.05;6.50;;;;;;;19.81;53.59;95977.56;10335502;28;20043;-75
2023/03/24 22:28:01;;;;;;;9.38;4.57;;;;;;;19.82;53.95;95964.88;10300266;28;20061;-78
2023/03/24 22:33:21;;;;;;;9.85;6.38;;;;;;;19.81;53.68;95972.16;10321645;28;20042;-77
2023/03/24 22:38:41;;;;;;;12.63;6.50;;;;;;;19.79;53.62;95982.53;10320804;28;20122;-77
2023/03/24 22:44:01;;;;;;;11.02;6.70;;;;;;;19.79;53.75;95968.25;10321067;28;20050;-76
2023/03/24 22:49:21;;;;;;;11.70;6.60;;;;;;;19.78;53.72;95981.00;10348818;28;20042;-76
2023/03/24 22:54:40;;;;;;;10.60;6.25;;;;;;;19.79;53.76;95970.97;10320220;28;20118;-76
2023/03/24 23:00:00;;;;;;;10.75;5.90;;;;;;;19.78;53.72;95985.59;10333549;28;20053;-76
2023/03/24 23:05:20;;;;;;;11.18;5.88;;;;;;;19.78;53.67;95988.28;10333549;28;20049;-76
2023/03/24 23:10:42;;;;;;;10.68;5.93;;;;;;;19.77;53.75;95986.72;10319520;28;20061;-76
2023/03/24 23:16:01;;;;;;;10.07;5.95;;;;;;;19.77;53.65;95981.31;10333096;28;20050;-76
2023/03/24 23:21:21;;;;;;;8.82;5.55;;;;;;;19.77;53.71;95979.41;10333099;28;20089;-76
2023/03/24 23:26:41;;;;;;;9.35;5.55;;;;;;;19.75;53.87;95977.03;10328575;28;20046;-75
2023/03/24 23:32:02;;;;;;;9.18;5.38;;;;;;;19.75;53.82;95984.38;10333956;28;20066;-76
2023/03/24 23:37:21;;;;;;;9.48;5.45;;;;;;;19.76;53.83;95975.16;10318839;28;20046;-76
2023/03/24 23:42:44;;;;;;;7.75;5.07;;;;;;;19.75;53.93;95978.97;10318590;28;20038;-77
2023/03/24 23:48:04;;;;;;;7.88;5.18;;;;;;;19.75;53.84;95978.97;10332266;28;20041;-77
2023/03/24 23:53:25;;;;;;;8.63;5.35;;;;;;;19.74;53.60;95977.41;10304686;28;20487;-77
2023/03/24 23:58:44;;;;;;;7.30;4.72;;;;;;;19.72;53.39;95971.56;10304730;28;20050;-77
